Time;durP1;ratioP1;P1;durP2;ratioP2;P2;SDS_P1;SDS_P2;PMS_P1;PMS_P2;Temp;Humidity;BMP_temperature;BMP_pressure;BME280_temperature;BME280_humidity;BME280_pressure;Samples;Min_cycle;Max_cycle;Signal;HPM_P1;HPM_P2
2023/04/12 00:02:08;;;;;;;;;5.00;3.25;;;;;7.51;93.18;98881.13;6333729;20;1816998;-53
2023/04/12 00:04:38;;;;;;;;;7.75;4.00;;;;;7.45;93.40;98881.50;6333632;20;1817156;-56
2023/04/12 00:07:08;;;;;;;;;3.25;3.25;;;;;7.50;93.46;98879.41;6332864;20;1807515;-53
2023/04/12 00:09:38;;;;;;;;;3.25;3.25;;;;;7.46;93.47;98877.91;6332446;20;1817087;-48
2023/04/12 00:12:06;;;;;;;;;5.50;5.50;;;;;7.35;93.66;98864.34;6316417;20;2744153;-53
2023/04/12 00:14:34;;;;;;;;;9.00;5.00;;;;;7.31;94.35;98873.50;6313522;20;2749275;-51
2023/04/12 00:17:02;;;;;;;;;4.50;4.00;;;;;7.25;94.28;98877.41;6279746;20;2756079;-54
2023/04/12 00:19:30;;;;;;;;;7.50;5.75;;;;;7.19;94.90;98875.13;6301216;20;1817592;-53
2023/04/12 00:21:58;;;;;;;;;5.00;5.00;;;;;7.41;93.48;98874.66;6313019;20;2747189;-50
2023/04/12 00:24:26;;;;;;;;;4.00;4.00;;;;;7.22;93.11;98874.91;6281252;20;2756668;-54
2023/04/12 00:26:55;;;;;;;;;3.50;3.00;;;;;7.31;93.30;98868.16;6317527;20;2457587;-54
2023/04/12 00:29:22;;;;;;;;;8.00;5.00;;;;;7.26;92.93;98863.94;6312681;20;2745303;-55
2023/04/12 00:31:51;;;;;;;;;4.75;4.75;;;;;7.27;92.96;98872.84;6299579;20;1819105;-54
2023/04/12 00:34:20;;;;;;;;;8.00;6.00;;;;;7.20;93.06;98867.00;6329246;20;1808747;-49
2023/04/12 00:36:49;;;;;;;;;5.00;5.00;;;;;7.17;93.59;98877.00;6311659;20;2748211;-50
2023/04/12 00:39:17;;;;;;;;;8.50;6.00;;;;;7.14;93.11;98866.53;6281162;20;2738856;-51
2023/04/12 00:41:45;;;;;;;;;5.75;4.00;;;;;7.18;92.88;98866.22;6298958;20;1815690;-55
2023/04/12 00:44:16;;;;;;;;;5.00;5.00;;;;;7.17;92.62;98861.84;6314235;20;2748429;-55
2023/04/12 00:46:46;;;;;;;;;8.00;8.00;;;;;7.16;93.20;98870.81;6285496;20;2739911;-50
2023/04/12 00:49:15;;;;;;;;;3.75;3.75;;;;;7.17;92.78;98871.66;6331338;20;1813830;-55
2023/04/12 00:51:43;;;;;;;;;6.00;6.00;;;;;7.13;92.79;98876.31;6310271;20;2736761;-55
2023/04/12 00:54:11;;;;;;;;;4.50;4.50;;;;;7.13;92.81;98881.66;6312926;20;2731585;-53
2023/04/12 00:56:40;;;;;;;;;9.00;8.00;;;;;7.06;93.06;98880.34;6310468;20;2732690;-51
2023/04/12 00:59:08;;;;;;;;;7.00;7.00;;;;;7.08;93.07;98883.75;6311352;20;2748196;-55
2023/04/12 01:01:37;;;;;;;;;5.50;5.00;;;;;7.01;93.59;98875.25;6312683;20;2743019;-54
2023/04/12 01:04:06;;;;;;;;;6.50;5.00;;;;;6.96;92.99;98868.50;6328569;20;1813966;-54
2023/04/12 01:07:17;;;;;;;;;9.00;6.50;;;;;6.98;93.37;98877.25;6314677;20;2740977;-55
2023/04/12 01:10:33;;;;;;;;;8.75;8.75;;;;;6.95;93.67;98882.75;6327438;20;1809323;-53
2023/04/12 01:13:58;;;;;;;;;4.50;4.25;;;;;6.69;94.95;98877.19;6329824;20;1820837;-53
2023/04/12 01:16:49;;;;;;;;;8.50;8.50;;;;;6.70;94.85;98881.56;6328811;20;1810267;-54
2023/04/12 01:19:45;;;;;;;;;4.50;4.50;;;;;6.38;95.84;98886.94;6310904;20;2744074;-52
2023/04/12 01:23:18;;;;;;;;;8.00;6.00;;;;;6.56;95.89;98886.84;6313847;20;2738820;-53
2023/04/12 01:26:10;;;;;;;;;10.00;6.50;;;;;6.57;95.81;98891.22;6310843;20;2761847;-52
2023/04/12 01:28:43;;;;;;;;;4.00;4.00;;;;;6.51;95.99;98888.91;6299319;20;1804501;-53
2023/04/12 01:31:13;;;;;;;;;7.50;5.00;;;;;6.61;95.56;98890.13;6310317;20;2737809;-52
2023/04/12 01:33:44;;;;;;;;;7.50;6.00;;;;;6.55;95.44;98899.31;6325596;20;1812136;-51
2023/04/12 01:36:21;;;;;;;;;8.00;6.00;;;;;6.44;95.09;98884.88;6307123;20;2738869;-52
2023/04/12 01:38:50;;;;;;;;;4.00;4.00;;;;;6.58;95.17;98892.94;6326237;20;1814955;-53
2023/04/12 01:41:19;;;;;;;;;7.50;5.00;;;;;6.54;95.07;98896.75;6308789;20;2734751;-53
2023/04/12 01:43:47;;;;;;;;;7.00;6.00;;;;;6.58;94.76;98895.59;6310987;20;2735219;-54
2023/04/12 01:46:19;;;;;;;;;8.50;8.00;;;;;6.47;94.92;98892.69;6309725;20;2742159;-52
2023/04/12 01:48:51;;;;;;;;;6.00;6.00;;;;;6.51;95.22;98891.59;6330083;20;1808802;-53
2023/04/12 01:52:11;;;;;;;;;9.00;6.00;;;;;6.56;93.96;98894.84;6302292;20;2739870;-53
2023/04/12 01:54:44;;;;;;;;;8.00;6.00;;;;;6.57;94.05;98888.56;6323178;20;1805609;-49
2023/04/12 01:57:15;;;;;;;;;7.00;7.00;;;;;6.60;94.21;98883.03;6342384;20;1793052;-51
2023/04/12 01:59:44;;;;;;;;;6.50;5.00;;;;;6.56;94.44;98886.84;6277634;20;2747247;-53
2023/04/12 02:02:13;;;;;;;;;6.25;6.25;;;;;6.59;93.90;98876.00;6325914;20;1819150;-53
2023/04/12 02:04:42;;;;;;;;;5.75;5.75;;;;;6.58;93.73;98882.25;6325103;20;1815963;-52
2023/04/12 02:07:13;;;;;;;;;7.00;7.00;;;;;6.52;93.44;98885.28;6310539;20;2735711;-54
2023/04/12 02:09:41;;;;;;;;;6.75;5.25;;;;;6.57;93.46;98883.22;6327017;20;1819151;-52
2023/04/12 02:12:09;;;;;;;;;9.00;5.00;;;;;6.52;93.80;98890.63;6310826;20;2753534;-51
2023/04/12 02:14:38;;;;;;;;;5.50;5.00;;;;;6.52;93.52;98890.63;6296955;20;1823418;-52
2023/04/12 02:17:07;;;;;;;;;5.50;5.50;;;;;6.42;94.13;98878.78;6307719;20;2751356;-50
2023/04/12 02:19:35;;;;;;;;;10.50;8.00;;;;;6.27;95.03;98885.84;6313413;20;2751336;-51
2023/04/12 02:22:04;;;;;;;;;12.00;5.00;;;;;6.18;96.16;98876.56;6293277;20;1823296;-51
2023/04/12 02:24:32;;;;;;;;;11.00;10.00;;;;;6.24;95.89;98888.66;6309990;20;2773340;-50
2023/04/12 02:27:00;;;;;;;;;11.50;8.00;;;;;6.03;96.37;98888.06;6281045;20;2769110;-51
2023/04/12 02:29:28;;;;;;;;;8.50;8.50;;;;;6.04;96.37;98881.81;6280014;20;2741971;-51
2023/04/12 02:31:56;;;;;;;;;12.50;8.50;;;;;6.09;96.45;98885.94;6308757;20;2767070;-51
2023/04/12 02:34:25;;;;;;;;;8.60;8.60;;;;;6.04;96.22;98879.16;6298007;20;2737199;-51
2023/04/12 02:36:53;;;;;;;;;9.00;9.00;;;;;5.99;96.70;98882.06;6312507;20;2737822;-49
2023/04/12 02:39:22;;;;;;;;;9.00;9.00;;;;;5.91;96.34;98884.28;6311544;20;2730644;-54
2023/04/12 02:41:51;;;;;;;;;11.00;8.40;;;;;5.78;96.97;98881.41;6332712;20;2764873;-51
2023/04/12 02:44:20;;;;;;;;;4.25;3.50;;;;;5.98;96.16;98875.03;6326641;20;1813964;-52
2023/04/12 02:46:48;;;;;;;;;8.00;8.00;;;;;6.04;95.82;98880.00;6311321;20;2744146;-49
2023/04/12 02:49:16;;;;;;;;;10.50;9.50;;;;;6.00;95.60;98882.91;6315868;20;2761748;-52
2023/04/12 02:51:44;;;;;;;;;10.00;9.00;;;;;6.12;95.46;98876.91;6282283;20;2755504;-52
2023/04/12 02:54:12;;;;;;;;;11.00;11.00;;;;;6.13;94.85;98879.50;6280691;20;2792109;-53
2023/04/12 02:56:42;;;;;;;;;9.50;8.00;;;;;6.07;94.79;98873.66;6284683;20;2745096;-52
2023/04/12 02:59:12;;;;;;;;;10.60;10.60;;;;;6.13;94.70;98870.63;6341438;20;2780570;-53
2023/04/12 03:01:45;;;;;;;;;5.00;5.00;;;;;6.12;94.54;98868.91;6298870;20;1807596;-50
2023/04/12 03:04:15;;;;;;;;;10.80;10.80;;;;;6.09;94.67;98866.44;6339706;20;2792056;-52
2023/04/12 03:06:51;;;;;;;;;12.00;11.00;;;;;6.17;94.65;98868.66;6281098;20;2783609;-52
2023/04/12 03:09:20;;;;;;;;;6.50;6.50;;;;;6.19;94.69;98878.28;6302918;20;1818201;-49
2023/04/12 03:11:50;;;;;;;;;12.25;10.00;;;;;6.09;94.26;98877.94;6337415;20;2782594;-51
2023/04/12 03:14:18;;;;;;;;;11.00;8.00;;;;;6.13;94.21;98873.28;6313517;20;2768214;-52
2023/04/12 03:16:47;;;;;;;;;13.50;9.50;;;;;6.02;94.51;98871.22;6280111;20;2781606;-52
2023/04/12 03:19:19;;;;;;;;;10.57;9.00;;;;;6.11;94.30;98877.88;6325731;20;1808180;-52
2023/04/12 03:21:46;;;;;;;;;10.00;10.00;;;;;5.99;94.61;98882.06;6313412;20;2770203;-54
2023/04/12 03:24:14;;;;;;;;;10.00;9.00;;;;;6.04;94.22;98876.50;6283688;20;2770715;-50
2023/04/12 03:26:44;;;;;;;;;12.00;9.40;;;;;5.97;94.09;98877.75;6306873;20;2765011;-50
2023/04/12 03:29:12;;;;;;;;;10.00;10.00;;;;;6.08;93.89;98875.34;6281978;20;2777388;-52
2023/04/12 03:31:43;;;;;;;;;11.86;11.14;;;;;6.14;93.81;98877.69;6323857;20;1804460;-51
2023/04/12 03:34:11;;;;;;;;;11.00;10.00;;;;;6.01;93.88;98874.00;6314294;20;2786752;-49
2023/04/12 03:36:40;;;;;;;;;11.00;9.50;;;;;6.08;93.07;98864.69;6285111;20;2758553;-51
2023/04/12 03:39:08;;;;;;;;;9.00;9.00;;;;;5.99;93.58;98871.41;6280316;20;2746120;-50
2023/04/12 03:41:36;;;;;;;;;4.00;4.00;;;;;6.06;93.27;98877.28;6299026;20;1820215;-53
2023/04/12 03:44:05;;;;;;;;;11.00;8.00;;;;;6.05;93.22;98875.53;6313499;20;2746149;-50
2023/04/12 03:46:33;;;;;;;;;10.00;10.00;;;;;6.00;93.26;98877.59;6285124;20;2771251;-51
2023/04/12 03:49:01;;;;;;;;;12.00;9.00;;;;;6.01;93.34;98876.66;6281871;20;2769039;-50
2023/04/12 03:51:29;;;;;;;;;12.00;9.00;;;;;6.00;93.02;98867.78;6276189;20;2763913;-51
2023/04/12 03:53:58;;;;;;;;;8.50;8.00;;;;;6.03;92.87;98869.41;6300076;20;1818031;-53
2023/04/12 03:56:27;;;;;;;;;8.75;8.75;;;;;6.02;93.01;98878.38;6334600;20;1808808;-50
2023/04/12 03:58:55;;;;;;;;;11.50;9.00;;;;;5.99;92.96;98875.88;6310142;20;2771272;-49
2023/04/12 04:01:22;;;;;;;;;6.00;6.00;;;;;6.03;92.91;98872.09;6279192;20;2737509;-50
2023/04/12 04:03:51;;;;;;;;;5.00;5.00;;;;;6.00;93.08;98877.59;6328520;20;1820159;-48
2023/04/12 04:06:21;;;;;;;;;2.50;2.50;;;;;5.90;93.04;98874.56;6329691;20;1809835;-53
2023/04/12 04:08:49;;;;;;;;;10.00;10.00;;;;;5.86;92.86;98870.34;6309099;20;2798292;-53
2023/04/12 04:11:19;;;;;;;;;15.00;10.80;;;;;5.88;93.75;98871.13;6305367;20;2795079;-51
2023/04/12 04:13:47;;;;;;;;;12.00;9.50;;;;;5.86;93.04;98876.53;6282387;20;2779576;-53
2023/04/12 04:16:17;;;;;;;;;14.60;10.20;;;;;5.88;92.88;98873.78;6303711;20;2783695;-51
2023/04/12 04:18:45;;;;;;;;;10.50;10.50;;;;;5.89;92.86;98873.69;6279592;20;2792119;-51
2023/04/12 04:21:16;;;;;;;;;14.14;10.86;;;;;5.88;93.05;98869.31;6319264;20;1808702;-51
2023/04/12 04:23:46;;;;;;;;;12.00;11.00;;;;;5.96;93.18;98865.41;6309746;20;2789899;-50
2023/04/12 04:26:15;;;;;;;;;9.50;9.50;;;;;5.94;92.67;98871.66;6281849;20;2761991;-53
2023/04/12 04:28:46;;;;;;;;;11.00;9.40;;;;;6.02;92.56;98865.06;6306321;20;2763935;-52
2023/04/12 04:31:16;;;;;;;;;12.50;9.00;;;;;6.08;91.73;98875.34;6274286;20;2777425;-50
2023/04/12 04:33:44;;;;;;;;;13.00;10.00;;;;;6.13;91.94;98870.63;6282717;20;2792025;-52
2023/04/12 04:36:15;;;;;;;;;11.50;10.00;;;;;6.12;91.53;98871.59;6279655;20;2780588;-52
2023/04/12 04:38:44;;;;;;;;;11.00;8.00;;;;;6.25;91.29;98869.94;6296116;20;1823371;-53
2023/04/12 04:41:16;;;;;;;;;16.20;12.00;;;;;6.11;91.43;98869.88;6336966;20;2800517;-50
2023/04/12 04:43:45;;;;;;;;;8.50;8.50;;;;;6.30;91.18;98885.69;6298256;20;1814948;-50
2023/04/12 04:46:13;;;;;;;;;11.00;9.50;;;;;6.33;91.63;98882.84;6308400;20;2783691;-52
2023/04/12 04:48:42;;;;;;;;;14.00;9.50;;;;;6.28;90.55;98884.91;6280436;20;2776454;-52
2023/04/12 04:51:11;;;;;;;;;11.00;7.40;;;;;8.11;86.37;98888.91;6305081;20;2759818;-54
2023/04/12 04:53:39;;;;;;;;;10.00;9.50;;;;;10.73;73.16;98895.78;6308364;20;2760817;-55
2023/04/12 04:56:08;;;;;;;;;10.00;8.50;;;;;10.55;70.12;98909.59;6284629;20;2760929;-54
2023/04/12 04:58:38;;;;;;;;;10.00;9.60;;;;;10.03;71.81;98908.03;6305835;20;2794006;-56
2023/04/12 05:01:06;;;;;;;;;7.50;7.50;;;;;10.86;69.53;98912.69;6280241;20;2744057;-51
2023/04/12 05:03:39;;;;;;;;;8.00;7.00;;;;;11.48;65.90;98902.63;6309316;20;2740939;-55
2023/04/12 05:06:08;;;;;;;;;4.50;4.50;;;;;8.56;76.96;98897.59;6314939;20;2744131;-53
2023/04/12 05:08:38;;;;;;;;;7.17;6.00;;;;;8.85;77.96;98893.94;6322439;20;1808590;-54
2023/04/12 05:11:06;;;;;;;;;7.00;7.00;;;;;8.96;76.64;98894.06;6283586;20;2744076;-53
2023/04/12 05:13:34;;;;;;;;;9.50;8.00;;;;;8.32;78.24;98891.13;6281240;20;2758693;-52
2023/04/12 05:16:07;;;;;;;;;11.50;9.00;;;;;8.11;81.49;98886.25;6277763;20;2759653;-54
2023/04/12 05:18:35;;;;;;;;;9.00;8.00;;;;;8.30;80.22;98893.06;6280901;20;2735739;-51
2023/04/12 05:21:04;;;;;;;;;8.50;7.00;;;;;8.44;79.18;98893.03;6276207;20;2748288;-52
2023/04/12 05:23:44;;;;;;;;;8.67;5.67;;;;;8.79;77.05;98897.88;6321340;20;1804499;-52
2023/04/12 05:26:13;;;;;;;;;8.00;8.00;;;;;8.16;80.13;98879.72;6302147;20;1808823;-53
2023/04/12 05:28:41;;;;;;;;;9.00;8.00;;;;;9.07;78.38;98896.03;6307283;20;2734723;-54
2023/04/12 05:31:09;;;;;;;;;7.00;7.00;;;;;11.35;67.29;98892.00;6307881;20;2736746;-52
2023/04/12 05:33:36;;;;;;;;;7.00;7.00;;;;;9.49;72.14;98886.00;6311410;20;2746212;-53
2023/04/12 05:36:05;;;;;;;;;7.00;6.00;;;;;8.71;76.42;98881.47;6280486;20;2739870;-55
2023/04/12 05:38:33;;;;;;;;;6.00;6.00;;;;;10.35;71.41;98887.88;6310050;20;2743066;-55
2023/04/12 05:41:03;;;;;;;;;7.50;7.50;;;;;10.27;69.44;98886.66;6276579;20;2736735;-54
2023/04/12 05:43:31;;;;;;;;;6.50;6.50;;;;;11.00;68.26;98884.78;6312703;20;2747168;-50
2023/04/12 05:46:01;;;;;;;;;67.67;54.33;;;;;12.86;59.44;98895.06;6274013;20;3635721;-54
2023/04/12 05:48:30;;;;;;;;;24.00;22.50;;;;;12.19;61.69;98901.47;6309993;20;2483626;-55
2023/04/12 05:50:57;;;;;;;;;7.00;5.00;;;;;11.01;64.61;98902.63;6279560;20;2745043;-53
2023/04/12 05:53:28;;;;;;;;;6.50;6.50;;;;;9.92;69.24;98890.97;6283679;20;2741093;-54
2023/04/12 05:55:56;;;;;;;;;5.00;5.00;;;;;9.85;69.12;98899.47;6281635;20;2745146;-51
2023/04/12 05:58:24;;;;;;;;;6.00;5.00;;;;;10.70;67.04;98896.03;6282048;20;2750262;-54
2023/04/12 06:00:54;;;;;;;;;6.00;5.00;;;;;12.51;60.97;98901.53;6280561;20;2744056;-52
2023/04/12 06:03:22;;;;;;;;;5.00;5.00;;;;;12.59;59.61;98900.91;6281555;20;2736758;-53
2023/04/12 06:05:51;;;;;;;;;5.33;5.33;;;;;15.79;48.80;98911.22;6279249;20;2734670;-56
2023/04/12 06:08:19;;;;;;;;;5.00;5.00;;;;;15.58;47.49;98906.81;6312384;20;2747153;-56
2023/04/12 06:10:47;;;;;;;;;4.00;4.00;;;;;15.92;47.87;98909.03;6275108;20;2756636;-57
2023/04/12 06:13:16;;;;;;;;;3.00;2.75;;;;;12.11;55.86;98895.81;6299815;20;1807685;-57
2023/04/12 06:15:44;;;;;;;;;6.00;4.50;;;;;12.44;56.81;98891.38;6310813;20;2750329;-56
2023/04/12 06:18:12;;;;;;;;;5.50;4.00;;;;;13.11;52.96;98895.66;6285199;20;2749303;-57
2023/04/12 06:20:40;;;;;;;;;5.00;5.00;;;;;13.96;51.90;98906.31;6281593;20;2738898;-59
2023/04/12 06:23:07;;;;;;;;;5.00;3.50;;;;;13.04;54.71;98894.50;6284649;20;2756578;-59
2023/04/12 06:25:36;;;;;;;;;3.50;2.00;;;;;13.78;53.16;98906.09;6287647;20;2754670;-58
2023/04/12 06:28:04;;;;;;;;;4.50;4.00;;;;;15.20;49.15;98896.91;6284902;20;2744010;-57
2023/04/12 06:30:32;;;;;;;;;4.00;4.00;;;;;15.12;48.10;98903.03;6289261;20;2742027;-57
2023/04/12 06:33:00;;;;;;;;;4.00;4.00;;;;;16.50;44.51;98901.66;6290165;20;2749243;-58
2023/04/12 06:35:27;;;;;;;;;2.50;2.00;;;;;16.04;45.04;98892.63;6288104;20;2733636;-57
2023/04/12 06:37:56;;;;;;;;;2.00;2.00;;;;;15.83;45.28;98907.22;6306283;20;1806677;-59
2023/04/12 06:40:26;;;;;;;;;5.60;5.60;;;;;18.04;40.63;98914.94;6342867;20;2750368;-59
2023/04/12 06:42:54;;;;;;;;;4.00;4.00;;;;;17.07;42.17;98908.56;6318015;20;2754589;-59
2023/04/12 06:45:21;;;;;;;;;3.00;3.00;;;;;16.50;42.91;98904.38;6295808;20;2632702;-59
2023/04/12 06:47:49;;;;;;;;;2.00;2.00;;;;;18.06;40.63;98912.91;6289894;20;2742026;-59
2023/04/12 06:50:17;;;;;;;;;4.00;4.00;;;;;20.20;34.95;98914.94;6289090;20;2748493;-60
2023/04/12 06:52:47;;;;;;;;;2.80;2.80;;;;;21.29;33.88;98924.09;6314641;20;2744088;-59
2023/04/12 06:55:15;;;;;;;;;3.00;3.00;;;;;23.19;30.40;98935.59;6318706;20;2745187;-59
2023/04/12 06:57:44;;;;;;;;;3.00;3.00;;;;;22.22;31.41;98935.78;6291555;20;2746233;-59
2023/04/12 07:00:13;;;;;;;;;4.00;4.00;;;;;20.96;33.57;98928.97;6288123;20;2750400;-59
2023/04/12 07:02:41;;;;;;;;;3.00;3.00;;;;;23.05;30.75;98931.03;6288974;20;2746215;-59
2023/04/12 07:05:09;;;;;;;;;2.00;2.00;;;;;24.06;29.32;98940.81;6292441;20;2735042;-60
2023/04/12 07:07:40;;;;;;;;;4.71;2.86;;;;;21.98;31.46;98939.59;6337191;20;3464203;-59
2023/04/12 07:10:09;;;;;;;;;5.00;5.00;;;;;22.55;30.52;98942.56;6319405;20;2746219;-59
2023/04/12 07:12:37;;;;;;;;;3.00;3.00;;;;;23.08;29.44;98933.38;6295645;20;2739907;-59
2023/04/12 07:15:06;;;;;;;;;3.00;3.00;;;;;20.68;33.40;98932.16;6320586;20;2750424;-61
2023/04/12 07:17:35;;;;;;;;;4.33;4.00;;;;;23.23;30.41;98942.38;6293503;20;2754456;-60
2023/04/12 07:20:04;;;;;;;;;4.00;3.00;;;;;23.14;30.38;98949.00;6316106;20;2753408;-59
2023/04/12 07:22:33;;;;;;;;;3.00;2.33;;;;;24.85;27.44;98947.84;6320448;20;2725325;-59
2023/04/12 07:25:05;;;;;;;;;3.00;3.00;;;;;23.05;29.55;98939.22;6340751;20;2739976;-58
2023/04/12 07:27:35;;;;;;;;;3.40;3.40;;;;;19.41;35.37;98930.19;6341339;20;2735710;-57
2023/04/12 07:30:06;;;;;;;;;5.60;4.60;;;;;17.46;39.89;98934.53;6341026;20;2749380;-57
2023/04/12 07:32:33;;;;;;;;;2.50;2.50;;;;;15.82;44.07;98926.31;6319667;20;2727379;-58
2023/04/12 07:35:01;;;;;;;;;3.00;3.00;;;;;15.51;44.96;98930.06;6290597;20;2746119;-57
2023/04/12 07:37:29;;;;;;;;;4.00;4.00;;;;;15.53;44.72;98936.19;6289065;20;2747290;-57
2023/04/12 07:39:57;;;;;;;;;5.00;5.00;;;;;15.54;44.53;98947.84;6287882;20;2742004;-57
2023/04/12 07:42:25;;;;;;;;;4.00;4.00;;;;;14.68;45.55;98942.25;6286991;20;2754468;-56
2023/04/12 07:44:52;;;;;;;;;2.50;2.50;;;;;14.58;46.31;98936.81;6286563;20;2745074;-56
2023/04/12 07:47:20;;;;;;;;;5.00;5.00;;;;;14.54;45.84;98935.41;6284480;20;2747205;-57
2023/04/12 07:49:48;;;;;;;;;4.00;4.00;;;;;15.51;45.05;98940.88;6283349;20;2737924;-57
2023/04/12 07:52:16;;;;;;;;;5.00;4.00;;;;;15.40;45.75;98943.72;6285159;20;2748311;-57
2023/04/12 07:54:46;;;;;;;;;5.00;5.00;;;;;14.74;48.18;98939.00;6310097;20;2745131;-57
2023/04/12 07:57:16;;;;;;;;;6.00;5.00;;;;;14.62;47.24;98940.97;6317958;20;2745111;-57
2023/04/12 07:59:44;;;;;;;;;8.50;5.00;;;;;14.82;46.59;98932.88;6283184;20;2752489;-57
2023/04/12 08:02:12;;;;;;;;;7.00;5.50;;;;;14.85;48.31;98935.31;6287494;20;2740941;-58
2023/04/12 08:04:43;;;;;;;;;4.00;4.00;;;;;14.79;47.01;98927.75;6288297;20;2739859;-57
2023/04/12 08:07:11;;;;;;;;;4.00;4.00;;;;;14.62;47.81;98932.88;6283722;20;2752374;-57
2023/04/12 08:09:38;;;;;;;;;3.50;3.50;;;;;14.17;46.87;98933.25;6288755;20;2754522;-55
2023/04/12 08:12:06;;;;;;;;;4.00;4.00;;;;;15.20;46.63;98931.22;6283335;20;2743045;-56
2023/04/12 08:14:34;;;;;;;;;5.50;5.50;;;;;14.13;48.02;98936.34;6287195;20;2736896;-56
2023/04/12 08:17:03;;;;;;;;;5.00;5.00;;;;;14.41;46.21;98932.06;6282279;20;2741941;-58
2023/04/12 08:19:31;;;;;;;;;5.00;5.00;;;;;15.15;46.58;98945.16;6287584;20;2733639;-57
2023/04/12 08:21:59;;;;;;;;;2.00;2.00;;;;;15.07;46.89;98942.31;6282976;20;2730515;-57
2023/04/12 08:24:27;;;;;;;;;4.00;4.00;;;;;14.66;47.20;98942.38;6286820;20;2752480;-57
2023/04/12 08:26:55;;;;;;;;;5.00;5.00;;;;;14.60;46.85;98932.13;6288937;20;2739874;-56
2023/04/12 08:29:23;;;;;;;;;4.00;4.00;;;;;15.15;47.67;98948.72;6284861;20;2750292;-55
2023/04/12 08:31:51;;;;;;;;;4.00;4.00;;;;;14.92;47.06;98941.88;6288112;20;2745078;-55
2023/04/12 08:34:21;;;;;;;;;6.00;6.00;;;;;14.60;48.72;98942.09;6286431;20;2741984;-57
2023/04/12 08:36:48;;;;;;;;;7.00;6.00;;;;;14.61;47.73;98941.97;6296198;20;2729598;-56
2023/04/12 08:39:16;;;;;;;;;5.00;5.00;;;;;15.34;47.28;98938.91;6289663;20;2752465;-57
2023/04/12 08:41:45;;;;;;;;;5.00;5.00;;;;;15.29;45.81;98935.75;6285955;20;2739908;-57
2023/04/12 08:44:13;;;;;;;;;5.00;5.00;;;;;15.33;46.89;98929.94;6286074;20;2737796;-56
2023/04/12 08:46:41;;;;;;;;;6.00;4.00;;;;;15.96;45.12;98934.84;6285161;20;2741976;-57
2023/04/12 08:49:10;;;;;;;;;6.00;6.00;;;;;15.84;47.95;98919.75;6285005;20;2748258;-56
2023/04/12 08:51:39;;;;;;;;;5.50;5.50;;;;;15.08;46.30;98927.78;6280264;20;2744061;-55
2023/04/12 08:54:06;;;;;;;;;8.00;6.50;;;;;14.96;47.12;98924.38;6284060;20;2748294;-56
2023/04/12 08:56:34;;;;;;;;;6.00;6.00;;;;;14.66;47.28;98925.31;6289253;20;2741014;-56
2023/04/12 08:59:03;;;;;;;;;5.00;5.00;;;;;15.39;45.55;98925.78;6281227;20;2748203;-55
2023/04/12 09:01:36;;;;;;;;;6.29;5.71;;;;;16.06;44.82;98928.50;6319660;20;3455497;-55
2023/04/12 09:04:06;;;;;;;;;5.00;5.00;;;;;15.86;45.88;98925.03;6313702;20;2741981;-57
2023/04/12 09:06:38;;;;;;;;;3.86;3.86;;;;;15.65;45.50;98919.78;6334332;20;2723314;-55
2023/04/12 09:09:06;;;;;;;;;5.50;5.50;;;;;16.23;44.17;98916.91;6317369;20;2737905;-55
2023/04/12 09:11:35;;;;;;;;;6.00;5.50;;;;;15.43;45.66;98913.69;6283238;20;2743027;-57
2023/04/12 09:14:04;;;;;;;;;5.50;5.50;;;;;16.18;45.02;98913.78;6286860;20;2737935;-54
2023/04/12 09:16:40;;;;;;;;;6.00;6.00;;;;;16.49;44.29;98921.66;6276698;20;2744194;-56
2023/04/12 09:19:08;;;;;;;;;7.00;5.50;;;;;16.80;44.46;98924.91;6289176;20;2737411;-55
2023/04/12 09:21:54;;;;;;;;;5.60;5.60;;;;;16.54;44.46;98922.91;6306972;20;2742197;-54
2023/04/12 09:24:24;;;;;;;;;8.00;8.00;;;;;15.71;44.68;98924.63;6312199;20;2753424;-57
2023/04/12 09:27:06;;;;;;;;;5.00;5.00;;;;;16.15;44.26;98923.06;6317153;20;2746237;-57
2023/04/12 09:29:34;;;;;;;;;7.00;7.00;;;;;16.88;43.36;98922.28;6316560;20;2732526;-55
2023/04/12 09:32:08;;;;;;;;;5.57;5.57;;;;;15.91;43.58;98914.63;6321620;20;3456531;-53
2023/04/12 09:34:38;;;;;;;;;6.40;6.00;;;;;16.13;43.38;98902.56;6337947;20;2746172;-54
2023/04/12 09:37:16;;;;;;;;;3.00;2.00;;;;;16.14;44.20;98905.13;6315031;20;2739874;-56
2023/04/12 09:39:44;;;;;;;;;6.00;6.00;;;;;16.87;42.86;98915.16;6284657;20;2743008;-55
2023/04/12 09:42:16;;;;;;;;;7.40;7.40;;;;;16.96;42.44;98906.09;6303930;20;2752350;-54
2023/04/12 09:45:21;;;;;;;;;8.80;8.80;;;;;16.82;43.78;98896.63;6337713;20;2778397;-56
2023/04/12 09:47:49;;;;;;;;;8.00;5.00;;;;;16.85;43.48;98892.75;6284388;20;2743084;-56
2023/04/12 09:50:27;;;;;;;;;8.00;5.00;;;;;16.97;42.05;98890.69;6281512;20;2734708;-57
2023/04/12 09:52:57;;;;;;;;;5.00;5.00;;;;;16.99;42.28;98888.66;6286145;20;2732591;-55
2023/04/12 09:55:30;;;;;;;;;4.00;4.00;;;;;16.36;42.73;98887.63;6303471;20;2748218;-55
2023/04/12 09:58:03;;;;;;;;;3.00;3.00;;;;;17.02;41.65;98893.78;6319736;20;2746197;-55
2023/04/12 10:00:33;;;;;;;;;2.00;2.00;;;;;16.85;41.89;98890.03;6286770;20;2744613;-54
2023/04/12 10:03:01;;;;;;;;;5.50;5.50;;;;;16.27;41.86;98885.78;6291810;20;2736746;-55
2023/04/12 10:05:29;;;;;;;;;3.00;3.00;;;;;17.05;40.07;98888.03;6288629;20;2748329;-57
2023/04/12 10:07:58;;;;;;;;;5.00;5.00;;;;;16.79;39.48;98877.94;6291941;20;2765998;-57
2023/04/12 10:10:26;;;;;;;;;7.00;7.00;;;;;17.08;40.53;98883.13;6286328;20;2733637;-54
2023/04/12 10:12:54;;;;;;;;;4.50;4.50;;;;;17.04;40.57;98880.91;6289062;20;2737790;-57
2023/04/12 10:15:25;;;;;;;;;5.00;5.00;;;;;16.83;40.05;98876.66;6313201;20;2741033;-52
2023/04/12 10:17:56;;;;;;;;;5.60;5.00;;;;;17.43;40.79;98881.41;6343279;20;2739868;-55
2023/04/12 10:20:24;;;;;;;;;4.00;3.00;;;;;18.01;38.75;98890.81;6315162;20;2753420;-55
2023/04/12 10:22:58;;;;;;;;;6.00;6.00;;;;;17.82;39.31;98880.16;6287740;20;2737790;-53
2023/04/12 10:25:29;;;;;;;;;3.50;3.50;;;;;17.73;40.09;98880.09;6286153;20;2748204;-57
2023/04/12 10:28:16;;;;;;;;;5.00;5.00;;;;;17.88;39.61;98884.97;6289527;20;2742084;-56
2023/04/12 10:30:48;;;;;;;;;4.50;3.50;;;;;16.98;39.75;98876.09;6291848;20;2749244;-56
2023/04/12 10:33:24;;;;;;;;;4.00;4.00;;;;;16.21;41.95;98873.72;6290438;20;2750292;-56
2023/04/12 10:36:07;;;;;;;;;5.00;5.00;;;;;15.53;42.32;98867.66;6292909;20;2732570;-54
2023/04/12 10:39:09;;;;;;;;;7.00;5.50;;;;;16.93;41.43;98873.88;6286677;20;2738919;-53
2023/04/12 10:41:37;;;;;;;;;6.00;5.00;;;;;17.16;40.29;98871.50;6286294;20;2742014;-50
2023/04/12 10:44:27;;;;;;;;;4.00;4.00;;;;;16.26;41.60;98872.44;6286648;20;2745189;-52
2023/04/12 10:46:55;;;;;;;;;11.00;11.00;;;;;16.67;41.06;98873.75;6291375;20;2796219;-55
2023/04/12 10:49:25;;;;;;;;;6.20;6.00;;;;;16.95;42.64;98871.84;6314794;20;2737796;-52
2023/04/12 10:52:04;;;;;;;;;3.50;3.50;;;;;16.72;41.20;98876.84;6318960;20;2754583;-56
2023/04/12 10:54:35;;;;;;;;;4.00;4.00;;;;;17.06;40.73;98877.03;6313366;20;2749332;-55
2023/04/12 10:57:05;;;;;;;;;6.50;6.50;;;;;16.26;41.42;98862.44;6320229;20;2740367;-58
2023/04/12 10:59:55;;;;;;;;;5.00;5.00;;;;;17.21;40.59;98850.19;6286035;20;2748207;-56
2023/04/12 11:02:23;;;;;;;;;6.50;6.00;;;;;17.20;41.21;98859.34;6290300;20;2739862;-55
2023/04/12 11:05:09;;;;;;;;;6.00;6.00;;;;;17.17;40.39;98854.25;6288644;20;2739970;-57
2023/04/12 11:07:43;;;;;;;;;4.00;4.00;;;;;16.67;41.09;98857.47;6289351;20;2747175;-55
2023/04/12 11:10:20;;;;;;;;;5.00;5.00;;;;;17.27;40.08;98849.59;6289492;20;2747307;-54
2023/04/12 11:12:55;;;;;;;;;3.50;3.50;;;;;16.86;39.19;98849.22;6288477;20;2743031;-57
2023/04/12 11:15:26;;;;;;;;;5.00;5.00;;;;;16.94;40.57;98845.75;6289289;20;2748190;-56
2023/04/12 11:17:59;;;;;;;;;4.50;4.50;;;;;16.86;39.19;98857.34;6290354;20;2756540;-52
2023/04/12 11:20:27;;;;;;;;;5.50;4.00;;;;;16.93;40.84;98852.19;6287173;20;2753404;-56
2023/04/12 11:22:55;;;;;;;;;5.00;5.00;;;;;18.23;39.00;98854.06;6287347;20;2751346;-53
2023/04/12 11:25:23;;;;;;;;;4.00;4.00;;;;;16.58;41.13;98842.13;6285775;20;2748208;-56
2023/04/12 11:27:53;;;;;;;;;8.00;6.50;;;;;17.13;39.78;98846.56;6288229;20;2738892;-54
2023/04/12 11:30:24;;;;;;;;;4.80;4.80;;;;;16.88;40.27;98846.38;6312614;20;2738866;-56
2023/04/12 11:32:54;;;;;;;;;4.40;4.40;;;;;16.25;39.68;98830.94;6339260;20;2747274;-56
2023/04/12 11:35:26;;;;;;;;;6.00;6.00;;;;;16.77;41.57;98841.13;6344247;20;2746138;-55
2023/04/12 11:37:56;;;;;;;;;7.00;7.00;;;;;15.72;41.61;98834.34;6316876;20;2743081;-51